Time;durP1;ratioP1;P1;durP2;ratioP2;P2;SDS_P1;SDS_P2;PMS_P1;PMS_P2;Temp;Humidity;BMP_temperature;BMP_pressure;BME280_temperature;BME280_humidity;BME280_pressure;Samples;Min_cycle;Max_cycle;Signal;HPM_P1;HPM_P2
2023/12/25 00:00:46;;;;;;;7.22;5.47;;;11.90;99.90;;;;;;5032086;28;20053;-84
2023/12/25 00:03:12;;;;;;;7.82;7.30;;;11.90;99.90;;;;;;5031809;28;20048;-86
2023/12/25 00:05:38;;;;;;;12.15;7.25;;;11.80;99.90;;;;;;5032818;28;20045;-86
2023/12/25 00:08:03;;;;;;;7.47;6.78;;;11.90;99.90;;;;;;4999541;28;20108;-88
2023/12/25 00:10:29;;;;;;;6.25;5.75;;;11.80;99.90;;;;;;4999307;28;20052;-88
2023/12/25 00:12:55;;;;;;;11.65;9.05;;;11.80;99.90;;;;;;5034256;28;20041;-83
2023/12/25 00:15:20;;;;;;;18.67;5.85;;;11.80;99.90;;;;;;5019173;28;20046;-84
2023/12/25 00:17:46;;;;;;;14.43;6.82;;;11.80;99.90;;;;;;5035644;28;20140;-85
2023/12/25 00:20:12;;;;;;;11.35;5.65;;;11.80;99.90;;;;;;5019844;28;20497;-85
2023/12/25 00:22:37;;;;;;;8.10;6.15;;;11.80;99.90;;;;;;5003492;28;20377;-84
2023/12/25 00:25:03;;;;;;;7.63;5.88;;;11.70;99.90;;;;;;5036270;28;20072;-86
2023/12/25 00:27:29;;;;;;;7.43;5.80;;;11.70;99.90;;;;;;5019076;28;20053;-86
2023/12/25 00:29:55;;;;;;;5.97;5.15;;;11.80;99.90;;;;;;5018921;28;20053;-83
2023/12/25 00:32:20;;;;;;;7.20;5.90;;;11.80;99.90;;;;;;5002825;28;20079;-86
2023/12/25 00:34:46;;;;;;;8.68;5.68;;;11.70;99.90;;;;;;5036086;28;20155;-84
2023/12/25 00:37:12;;;;;;;6.60;5.95;;;11.70;99.90;;;;;;5035292;28;20049;-84
2023/12/25 00:39:37;;;;;;;7.55;6.35;;;11.70;99.90;;;;;;5035155;28;20549;-84
2023/12/25 00:42:03;;;;;;;5.80;5.25;;;11.70;99.90;;;;;;5018737;28;20060;-83
2023/12/25 00:44:29;;;;;;;8.73;8.02;;;11.70;99.90;;;;;;5018215;28;20080;-85
2023/12/25 00:46:54;;;;;;;6.75;5.90;;;11.70;99.90;;;;;;5018668;28;20537;-85
2023/12/25 00:49:20;;;;;;;6.72;5.25;;;11.70;99.90;;;;;;5018808;28;20049;-88
2023/12/25 00:51:47;;;;;;;9.35;5.70;;;11.70;99.90;;;;;;5018416;28;20045;-85
2023/12/25 00:54:13;;;;;;;5.75;4.80;;;11.60;99.90;;;;;;5018899;28;20045;-84
2023/12/25 00:56:39;;;;;;;6.43;5.30;;;11.60;99.90;;;;;;5034876;28;20056;-85
2023/12/25 00:59:04;;;;;;;6.03;4.90;;;11.60;99.90;;;;;;5035689;28;20391;-85
2023/12/25 01:01:30;;;;;;;7.43;5.43;;;11.50;99.90;;;;;;5018639;28;20124;-84
2023/12/25 01:03:56;;;;;;;7.28;5.05;;;11.50;99.90;;;;;;5034788;28;20052;-85
2023/12/25 01:06:21;;;;;;;7.82;4.63;;;11.50;99.90;;;;;;5018695;28;20049;-84
2023/12/25 01:08:47;;;;;;;6.07;4.60;;;11.50;99.90;;;;;;5034318;28;20042;-84
2023/12/25 01:11:13;;;;;;;8.50;5.10;;;11.40;99.90;;;;;;5017776;28;20084;-84
2023/12/25 01:13:38;;;;;;;5.25;4.80;;;11.40;99.90;;;;;;5018077;28;20052;-85
2023/12/25 01:16:04;;;;;;;8.25;5.32;;;11.30;99.90;;;;;;5018853;28;20053;-86
2023/12/25 01:18:30;;;;;;;10.88;6.43;;;11.30;99.90;;;;;;5017989;28;20140;-83
2023/12/25 01:20:56;;;;;;;5.28;4.78;;;11.30;99.90;;;;;;5018023;28;20409;-85
2023/12/25 01:23:21;;;;;;;9.30;4.95;;;11.20;99.90;;;;;;5033602;28;20049;-83
2023/12/25 01:25:47;;;;;;;7.88;5.40;;;11.20;99.90;;;;;;5002273;28;20056;-84
2023/12/25 01:28:12;;;;;;;7.13;5.80;;;11.20;99.90;;;;;;5034335;28;20474;-83
2023/12/25 01:30:38;;;;;;;8.00;6.15;;;11.20;99.90;;;;;;5034400;28;20478;-85
2023/12/25 01:33:04;;;;;;;6.30;5.50;;;11.10;99.90;;;;;;5017737;28;20402;-83
2023/12/25 01:35:29;;;;;;;7.43;6.50;;;11.10;99.90;;;;;;5018511;28;20049;-84
2023/12/25 01:37:55;;;;;;;6.72;5.03;;;11.10;99.90;;;;;;5034863;28;20045;-85
2023/12/25 01:40:21;;;;;;;8.43;5.25;;;11.10;99.90;;;;;;5017529;28;20049;-83
2023/12/25 01:42:47;;;;;;;6.75;6.10;;;11.10;99.90;;;;;;5017882;28;20379;-85
2023/12/25 01:45:13;;;;;;;9.00;8.23;;;11.10;99.90;;;;;;5034840;28;20059;-85
2023/12/25 01:47:39;;;;;;;7.43;5.82;;;11.20;99.90;;;;;;5033992;28;20504;-84
2023/12/25 01:50:06;;;;;;;8.98;5.85;;;11.10;99.90;;;;;;5034546;28;20052;-83
2023/12/25 01:52:32;;;;;;;10.48;5.75;;;11.10;99.90;;;;;;5017074;28;20401;-85
2023/12/25 01:54:59;;;;;;;6.60;5.78;;;11.10;99.90;;;;;;5017413;28;20052;-84
2023/12/25 01:57:32;;;;;;;7.32;5.68;;;11.10;99.90;;;;;;5017182;28;20076;-85
2023/12/25 01:59:58;;;;;;;7.05;5.05;;;11.10;99.90;;;;;;5017380;28;20053;-84
2023/12/25 02:02:23;;;;;;;10.05;5.00;;;11.10;99.90;;;;;;5033969;28;20076;-85
2023/12/25 02:04:49;;;;;;;6.97;4.35;;;11.10;99.90;;;;;;5034380;28;20454;-84
2023/12/25 02:07:15;;;;;;;10.23;5.93;;;11.10;99.90;;;;;;5034406;28;20050;-83
2023/12/25 02:09:47;;;;;;;7.47;4.93;;;11.10;99.90;;;;;;5017178;28;20050;-83
2023/12/25 02:12:12;;;;;;;6.68;4.75;;;11.10;99.90;;;;;;5017545;28;20038;-85
2023/12/25 02:14:38;;;;;;;8.63;4.85;;;11.10;99.90;;;;;;5016703;28;20049;-85
2023/12/25 02:17:05;;;;;;;6.00;4.85;;;11.10;99.90;;;;;;5017260;28;20048;-84
2023/12/25 02:19:44;;;;;;;6.75;4.80;;;11.10;99.90;;;;;;5017852;28;20054;-83
2023/12/25 02:22:10;;;;;;;6.13;4.70;;;11.10;99.90;;;;;;5033339;28;20108;-85
2023/12/25 02:25:01;;;;;;;6.68;6.07;;;11.10;99.90;;;;;;5016829;28;20080;-84
2023/12/25 02:27:28;;;;;;;4.80;4.25;;;11.10;99.90;;;;;;5033543;28;20060;-86
2023/12/25 02:29:54;;;;;;;9.23;8.45;;;11.10;99.90;;;;;;5033436;28;20042;-85
2023/12/25 02:32:19;;;;;;;6.60;4.72;;;11.00;99.90;;;;;;5033392;28;20148;-86
2023/12/25 02:34:47;;;;;;;8.32;5.00;;;11.00;99.90;;;;;;5033134;28;20421;-85
2023/12/25 02:37:13;;;;;;;7.05;5.22;;;11.00;99.90;;;;;;5001332;28;20046;-85
2023/12/25 02:39:39;;;;;;;5.15;4.10;;;11.10;99.90;;;;;;5033003;28;20063;-84
2023/12/25 02:42:05;;;;;;;7.68;7.10;;;11.10;99.90;;;;;;5033270;28;20095;-82
2023/12/25 02:44:31;;;;;;;5.20;4.43;;;11.00;99.90;;;;;;5016037;28;20085;-84
2023/12/25 02:46:56;;;;;;;5.53;4.80;;;11.00;99.90;;;;;;5016726;28;20053;-84
2023/12/25 02:49:22;;;;;;;6.93;4.65;;;11.00;99.90;;;;;;5000356;28;20129;-84
2023/12/25 02:51:48;;;;;;;7.90;4.63;;;11.00;99.90;;;;;;5033192;28;20044;-85
2023/12/25 02:54:14;;;;;;;4.53;4.22;;;11.00;99.90;;;;;;5016409;28;20088;-86
2023/12/25 02:56:40;;;;;;;9.07;4.50;;;11.00;99.90;;;;;;5033154;28;20083;-83
2023/12/25 02:59:06;;;;;;;4.53;4.13;;;11.10;99.90;;;;;;5016577;28;20390;-83
2023/12/25 03:01:32;;;;;;;5.65;4.38;;;11.00;99.90;;;;;;5032515;28;20056;-82
2023/12/25 03:03:57;;;;;;;8.77;4.93;;;11.00;99.90;;;;;;5032948;28;20048;-85
2023/12/25 03:06:23;;;;;;;7.88;3.92;;;11.00;99.90;;;;;;5016233;28;20490;-83
2023/12/25 03:08:49;;;;;;;6.20;4.45;;;11.00;99.90;;;;;;5032624;28;20394;-86
2023/12/25 03:11:14;;;;;;;4.72;3.80;;;11.00;99.90;;;;;;5016069;28;20398;-83
2023/12/25 03:13:40;;;;;;;7.03;3.75;;;11.00;99.90;;;;;;5032284;28;20048;-84
2023/12/25 03:16:06;;;;;;;5.32;4.22;;;10.90;99.90;;;;;;4999784;28;20050;-84
2023/12/25 03:18:33;;;;;;;4.50;3.78;;;10.90;99.90;;;;;;5032443;28;20045;-88
2023/12/25 03:20:59;;;;;;;4.50;3.97;;;10.90;99.90;;;;;;5033266;28;20459;-84
2023/12/25 03:23:24;;;;;;;6.50;4.18;;;10.90;99.90;;;;;;5016862;28;20120;-83
2023/12/25 03:25:50;;;;;;;7.55;4.40;;;10.90;99.90;;;;;;5016093;28;20548;-86
2023/12/25 03:28:15;;;;;;;6.88;4.20;;;10.90;99.90;;;;;;4999732;28;20049;-84
2023/12/25 03:30:41;;;;;;;4.80;4.07;;;10.90;99.90;;;;;;5015902;28;20048;-86
2023/12/25 03:33:07;;;;;;;5.18;3.63;;;10.90;99.90;;;;;;5032146;28;20042;-87
2023/12/25 03:35:34;;;;;;;5.07;3.55;;;10.90;99.90;;;;;;5032379;28;20085;-85
2023/12/25 03:38:00;;;;;;;4.47;4.07;;;10.90;99.90;;;;;;5015913;28;20405;-84
2023/12/25 03:40:25;;;;;;;5.30;3.60;;;10.90;99.90;;;;;;5016867;28;20045;-87
2023/12/25 03:42:53;;;;;;;4.10;3.65;;;10.90;99.90;;;;;;5032838;28;20049;-83
2023/12/25 03:45:19;;;;;;;4.97;3.50;;;10.90;99.90;;;;;;5016010;28;20124;-85
2023/12/25 03:47:45;;;;;;;4.78;3.50;;;10.80;99.90;;;;;;5034839;28;20129;-84
2023/12/25 03:50:10;;;;;;;4.38;3.97;;;10.90;99.90;;;;;;5036685;28;20474;-84
2023/12/25 03:52:36;;;;;;;5.68;3.80;;;10.80;99.90;;;;;;5019767;28;20052;-87
2023/12/25 03:55:02;;;;;;;5.53;3.70;;;10.80;99.90;;;;;;5020017;28;20443;-85
2023/12/25 03:57:28;;;;;;;3.42;3.10;;;10.90;99.90;;;;;;5036151;28;20045;-86
2023/12/25 03:59:53;;;;;;;4.45;3.47;;;10.90;99.90;;;;;;5019582;28;20049;-86
2023/12/25 04:02:19;;;;;;;6.13;3.60;;;10.90;99.90;;;;;;5036077;28;20045;-84
2023/12/25 04:04:44;;;;;;;5.63;3.63;;;10.90;99.90;;;;;;5019451;28;20049;-84
2023/12/25 04:07:10;;;;;;;7.07;3.88;;;10.80;99.90;;;;;;5019550;28;20481;-84
2023/12/25 04:09:36;;;;;;;3.92;3.40;;;10.80;99.90;;;;;;5035780;28;20111;-85
2023/12/25 04:12:02;;;;;;;6.65;4.43;;;10.80;99.90;;;;;;5019967;28;20081;-87
2023/12/25 04:14:28;;;;;;;4.72;3.13;;;10.90;99.90;;;;;;5020127;28;20060;-85
2023/12/25 04:16:53;;;;;;;3.95;3.33;;;10.90;99.90;;;;;;5002918;28;20462;-84
2023/12/25 04:19:19;;;;;;;5.75;3.47;;;10.90;99.90;;;;;;5035809;28;20133;-85
2023/12/25 04:21:45;;;;;;;3.85;3.53;;;10.80;99.90;;;;;;5035565;28;20063;-84
2023/12/25 04:24:10;;;;;;;5.50;3.35;;;10.80;99.90;;;;;;5019882;28;20045;-82
2023/12/25 04:26:36;;;;;;;4.47;3.30;;;10.80;99.90;;;;;;5035504;28;20053;-85
2023/12/25 04:29:02;;;;;;;5.03;4.35;;;10.70;99.90;;;;;;5019001;28;20449;-85
2023/12/25 04:31:27;;;;;;;5.75;4.28;;;10.80;99.90;;;;;;5034954;28;20050;-85
2023/12/25 04:33:53;;;;;;;6.18;3.85;;;10.80;99.90;;;;;;5018969;28;20045;-85
2023/12/25 04:36:19;;;;;;;5.75;3.80;;;10.80;99.90;;;;;;5035171;28;20057;-83
2023/12/25 04:38:44;;;;;;;3.65;3.30;;;10.80;99.90;;;;;;5034962;28;20078;-85
2023/12/25 04:41:10;;;;;;;4.47;3.40;;;10.80;99.90;;;;;;5018848;28;20056;-85
2023/12/25 04:43:36;;;;;;;6.22;3.33;;;10.80;99.90;;;;;;5018361;28;20099;-85
2023/12/25 04:46:04;;;;;;;4.78;3.45;;;10.80;99.90;;;;;;5018841;28;20128;-86
2023/12/25 04:48:30;;;;;;;5.85;3.50;;;10.80;99.90;;;;;;5018725;28;20092;-83
2023/12/25 04:50:56;;;;;;;4.55;4.07;;;10.90;99.90;;;;;;5018275;28;20081;-85
2023/12/25 04:53:22;;;;;;;4.53;3.58;;;10.90;99.90;;;;;;5035133;28;20052;-83
2023/12/25 04:55:48;;;;;;;3.92;3.30;;;10.80;99.90;;;;;;5034953;28;20054;-83
2023/12/25 04:58:13;;;;;;;4.47;3.78;;;10.90;99.90;;;;;;5035054;28;20049;-87
2023/12/25 05:00:39;;;;;;;3.95;3.38;;;10.90;99.90;;;;;;5034977;28;20100;-85
2023/12/25 05:03:05;;;;;;;3.90;3.47;;;10.90;99.90;;;;;;5035409;28;20048;-83
2023/12/25 05:05:30;;;;;;;3.90;3.50;;;10.90;99.90;;;;;;5035709;28;20132;-85
2023/12/25 05:07:56;;;;;;;6.32;4.05;;;10.90;99.90;;;;;;5034662;28;20099;-83
2023/12/25 05:10:22;;;;;;;3.92;3.40;;;10.90;99.90;;;;;;5018244;28;20052;-85
2023/12/25 05:12:47;;;;;;;5.55;3.88;;;10.90;99.90;;;;;;5034720;28;20438;-86
2023/12/25 05:15:13;;;;;;;4.00;3.40;;;10.90;99.90;;;;;;5034588;28;20457;-83
2023/12/25 05:17:39;;;;;;;4.25;3.95;;;10.90;99.90;;;;;;5018285;28;20050;-86
2023/12/25 05:20:06;;;;;;;3.75;3.45;;;10.90;99.90;;;;;;5018098;28;20085;-84
2023/12/25 05:22:32;;;;;;;6.03;3.47;;;10.90;99.90;;;;;;5034517;28;20402;-82
2023/12/25 05:24:57;;;;;;;5.32;3.33;;;10.90;99.90;;;;;;5018784;28;20099;-81
2023/12/25 05:27:23;;;;;;;3.92;3.55;;;10.90;99.90;;;;;;5017799;28;20057;-85
2023/12/25 05:29:49;;;;;;;5.78;3.70;;;10.90;99.90;;;;;;5035282;28;20041;-83
2023/12/25 05:32:15;;;;;;;3.85;3.45;;;10.90;99.90;;;;;;5018104;28;20394;-85
2023/12/25 05:34:40;;;;;;;3.42;3.13;;;10.90;99.90;;;;;;5017995;28;20041;-87
2023/12/25 05:37:06;;;;;;;3.50;3.17;;;10.90;99.90;;;;;;5018092;28;20065;-85
2023/12/25 05:39:32;;;;;;;3.88;3.30;;;10.90;99.90;;;;;;5035032;28;20045;-87
2023/12/25 05:41:57;;;;;;;3.28;2.90;;;10.90;99.90;;;;;;5034503;28;20136;-84
2023/12/25 05:44:24;;;;;;;5.90;4.20;;;10.90;99.90;;;;;;5033668;28;20057;-88
2023/12/25 05:46:49;;;;;;;4.47;4.18;;;10.90;99.90;;;;;;5018592;28;20140;-87
2023/12/25 05:49:15;;;;;;;4.00;3.63;;;10.90;99.90;;;;;;5034091;28;20593;-86
2023/12/25 05:51:41;;;;;;;3.95;3.55;;;10.90;99.90;;;;;;5017506;28;20540;-87
2023/12/25 05:54:06;;;;;;;4.45;4.07;;;10.90;99.90;;;;;;5017623;28;20056;-85
2023/12/25 05:56:32;;;;;;;4.78;3.67;;;10.90;99.90;;;;;;5017565;28;20409;-84
2023/12/25 05:58:59;;;;;;;5.18;3.05;;;11.00;99.90;;;;;;5034856;28;20055;-84
2023/12/25 06:01:25;;;;;;;3.70;3.40;;;10.90;99.90;;;;;;5018153;28;20109;-85
2023/12/25 06:03:51;;;;;;;4.43;3.05;;;10.90;99.90;;;;;;5033556;28;20052;-84
2023/12/25 06:06:17;;;;;;;3.42;3.10;;;10.90;99.90;;;;;;5033936;28;20045;-85
2023/12/25 06:08:43;;;;;;;3.50;3.03;;;10.90;99.90;;;;;;5000878;28;20049;-86
2023/12/25 06:11:09;;;;;;;8.65;3.40;;;10.80;99.90;;;;;;5033236;28;20037;-85
2023/12/25 06:13:35;;;;;;;4.70;3.17;;;10.80;99.90;;;;;;5017259;28;20402;-84
2023/12/25 06:16:01;;;;;;;3.95;3.60;;;10.80;99.90;;;;;;5033539;28;20089;-85
2023/12/25 06:18:27;;;;;;;4.85;3.67;;;10.80;99.90;;;;;;5033607;28;20095;-86
2023/12/25 06:20:52;;;;;;;4.20;2.95;;;10.80;99.90;;;;;;5017266;28;20065;-83
2023/12/25 06:23:18;;;;;;;4.78;3.50;;;10.80;99.90;;;;;;5033462;28;20494;-85
2023/12/25 06:25:44;;;;;;;6.40;3.65;;;10.70;99.90;;;;;;5017803;28;20427;-83
2023/12/25 06:28:09;;;;;;;3.83;3.50;;;10.70;99.90;;;;;;5033863;28;20478;-85
2023/12/25 06:30:35;;;;;;;3.95;3.55;;;10.70;99.90;;;;;;5017231;28;20549;-85
2023/12/25 06:33:01;;;;;;;4.80;3.30;;;10.70;99.90;;;;;;5033942;28;20041;-84
2023/12/25 06:35:27;;;;;;;6.82;3.42;;;10.70;99.90;;;;;;5017174;28;20088;-84
2023/12/25 06:37:52;;;;;;;8.32;3.95;;;10.70;99.90;;;;;;5017276;28;20099;-86
2023/12/25 06:40:18;;;;;;;7.07;3.38;;;10.60;99.90;;;;;;5016803;28;20045;-84
2023/12/25 06:42:44;;;;;;;4.30;3.67;;;10.60;99.90;;;;;;5000124;28;20063;-85
2023/12/25 06:45:10;;;;;;;6.15;3.55;;;10.60;99.90;;;;;;5033220;28;20048;-86
2023/12/25 06:47:35;;;;;;;5.35;3.50;;;10.60;99.90;;;;;;5033885;28;20079;-84
2023/12/25 06:50:01;;;;;;;3.53;3.22;;;10.60;99.90;;;;;;5017085;28;20049;-86
2023/12/25 06:52:27;;;;;;;6.13;2.90;;;10.50;99.90;;;;;;5032655;28;20122;-86
2023/12/25 06:54:53;;;;;;;4.05;3.55;;;10.50;99.90;;;;;;5033176;28;20045;-87
2023/12/25 06:57:19;;;;;;;3.65;3.22;;;10.50;99.90;;;;;;5016677;28;20135;-84
2023/12/25 06:59:45;;;;;;;6.97;3.45;;;10.50;99.90;;;;;;5016300;28;20132;-82
2023/12/25 07:02:11;;;;;;;5.55;3.47;;;10.40;99.90;;;;;;5016479;28;20136;-84
2023/12/25 07:04:37;;;;;;;3.92;3.17;;;10.40;99.90;;;;;;5016480;28;20127;-83
2023/12/25 07:07:03;;;;;;;4.97;3.63;;;10.40;99.90;;;;;;5016544;28;20041;-83
2023/12/25 07:09:29;;;;;;;4.35;3.58;;;10.30;99.90;;;;;;4999823;28;20085;-84
2023/12/25 07:11:55;;;;;;;3.47;3.08;;;10.30;99.90;;;;;;5032719;28;20045;-85
2023/12/25 07:14:22;;;;;;;3.85;3.10;;;10.30;99.90;;;;;;5033534;28;20057;-86
2023/12/25 07:16:47;;;;;;;6.35;3.30;;;10.30;99.90;;;;;;5032605;28;20103;-83
2023/12/25 07:19:13;;;;;;;4.85;3.60;;;10.20;99.90;;;;;;5033094;28;20045;-85
2023/12/25 07:21:39;;;;;;;6.68;3.15;;;10.20;99.90;;;;;;5016661;28;20052;-85
2023/12/25 07:24:05;;;;;;;11.68;3.35;;;10.20;99.90;;;;;;5020098;28;20080;-84
2023/12/25 07:26:31;;;;;;;3.85;3.00;;;10.30;99.90;;;;;;5036800;28;20041;-85
2023/12/25 07:28:58;;;;;;;4.00;3.40;;;10.30;99.90;;;;;;5019911;28;20095;-84
2023/12/25 07:31:23;;;;;;;5.25;3.83;;;10.30;99.90;;;;;;5036740;28;20049;-86
2023/12/25 07:33:53;;;;;;;4.15;3.75;;;10.30;99.90;;;;;;5037299;28;20107;-84
2023/12/25 07:36:19;;;;;;;4.03;3.20;;;10.30;99.90;;;;;;5020282;28;20536;-87
2023/12/25 07:38:45;;;;;;;3.83;3.50;;;10.30;99.90;;;;;;5037181;28;20049;-84
2023/12/25 07:41:11;;;;;;;4.28;3.83;;;10.30;99.90;;;;;;5020009;28;20053;-83
2023/12/25 07:43:38;;;;;;;6.05;3.40;;;10.20;99.90;;;;;;5036088;28;20097;-85
2023/12/25 07:46:08;;;;;;;6.97;3.53;;;10.20;99.90;;;;;;5037208;28;20458;-86
2023/12/25 07:48:34;;;;;;;4.72;3.67;;;10.20;99.90;;;;;;5036869;28;20335;-85
2023/12/25 07:51:00;;;;;;;6.45;3.47;;;10.20;99.90;;;;;;5035939;28;20081;-85
2023/12/25 07:53:26;;;;;;;3.40;3.15;;;10.20;99.90;;;;;;5019447;28;20060;-85
2023/12/25 07:55:52;;;;;;;5.13;4.05;;;10.20;99.90;;;;;;5036833;28;20053;-80
2023/12/25 07:58:18;;;;;;;6.13;3.75;;;10.20;99.90;;;;;;5019124;28;20383;-81
2023/12/25 08:00:43;;;;;;;3.88;3.50;;;10.10;99.90;;;;;;5036640;28;20080;-79
2023/12/25 08:03:11;;;;;;;4.22;3.58;;;10.20;99.90;;;;;;5036718;28;20466;-80
2023/12/25 08:05:38;;;;;;;4.43;3.65;;;10.10;99.90;;;;;;5035813;28;20076;-80
2023/12/25 08:08:07;;;;;;;5.20;3.53;;;10.10;99.90;;;;;;5035749;28;20148;-80
2023/12/25 08:10:33;;;;;;;3.92;3.28;;;10.10;99.90;;;;;;5036665;28;20037;-80
2023/12/25 08:12:59;;;;;;;5.50;3.70;;;10.00;99.90;;;;;;5036580;28;20179;-80
2023/12/25 08:15:28;;;;;;;6.40;3.50;;;10.00;99.90;;;;;;5018930;28;20049;-80
2023/12/25 08:17:54;;;;;;;4.25;3.67;;;10.00;99.90;;;;;;5035598;28;20049;-79
2023/12/25 08:20:20;;;;;;;4.05;3.10;;;9.90;99.90;;;;;;5035567;28;20499;-79
2023/12/25 08:22:46;;;;;;;6.18;3.72;;;9.90;99.90;;;;;;5019139;28;20064;-80
2023/12/25 08:25:12;;;;;;;5.57;3.50;;;9.90;99.90;;;;;;5035542;28;20053;-79
2023/12/25 08:27:38;;;;;;;6.50;3.58;;;9.90;99.90;;;;;;5018988;28;20570;-80
2023/12/25 08:30:05;;;;;;;4.97;3.92;;;9.90;99.90;;;;;;5036467;28;20061;-79
2023/12/25 08:32:31;;;;;;;3.85;3.45;;;9.90;99.90;;;;;;5035835;28;20089;-80
2023/12/25 08:34:56;;;;;;;3.85;3.55;;;9.90;99.90;;;;;;5035868;28;20453;-83
2023/12/25 08:37:22;;;;;;;4.03;3.65;;;9.80;99.90;;;;;;5002571;28;20092;-88
2023/12/25 08:39:48;;;;;;;4.22;3.80;;;9.80;99.90;;;;;;5034779;28;20045;-89
2023/12/25 08:42:15;;;;;;;5.63;4.65;;;9.80;99.90;;;;;;5018729;28;20053;-86
2023/12/25 08:44:41;;;;;;;6.82;3.47;;;9.80;99.90;;;;;;5019564;28;20060;-87
2023/12/25 08:47:07;;;;;;;3.78;3.42;;;9.80;99.90;;;;;;5035132;28;20136;-86
2023/12/25 08:49:33;;;;;;;6.50;3.35;;;9.80;99.90;;;;;;5035155;28;20419;-90
2023/12/25 08:51:59;;;;;;;5.90;3.50;;;9.80;99.90;;;;;;5002220;28;20050;-84
2023/12/25 08:54:25;;;;;;;6.22;3.85;;;9.80;99.90;;;;;;5018486;28;20041;-85
2023/12/25 08:56:51;;;;;;;7.40;3.45;;;9.80;99.90;;;;;;5019389;28;20061;-84
2023/12/25 08:59:17;;;;;;;6.00;3.60;;;9.70;99.90;;;;;;5034770;28;20148;-85
2023/12/25 09:01:43;;;;;;;4.75;3.00;;;9.80;99.90;;;;;;5018407;28;20084;-85
2023/12/25 09:04:09;;;;;;;4.78;3.75;;;9.80;99.90;;;;;;5018744;28;20038;-87
2023/12/25 09:06:34;;;;;;;8.48;3.80;;;9.80;99.90;;;;;;5018269;28;20046;-89
2023/12/25 09:09:00;;;;;;;5.70;3.30;;;9.80;99.90;;;;;;5018466;28;20041;-89
2023/12/25 09:11:26;;;;;;;5.57;3.13;;;9.90;99.90;;;;;;5001734;28;20055;-86
2023/12/25 09:13:53;;;;;;;6.88;4.00;;;9.90;99.90;;;;;;5034622;28;20107;-87
2023/12/25 09:16:18;;;;;;;3.88;3.50;;;9.90;99.90;;;;;;5002681;28;20060;-87
2023/12/25 09:18:44;;;;;;;5.45;3.60;;;9.90;99.90;;;;;;5018019;28;20049;-88
2023/12/25 09:21:12;;;;;;;3.80;3.50;;;9.90;99.90;;;;;;5001471;28;20041;-88
2023/12/25 09:23:38;;;;;;;6.07;3.28;;;9.90;99.90;;;;;;5001959;28;20088;-87
2023/12/25 09:26:04;;;;;;;4.93;3.60;;;9.90;99.90;;;;;;5017848;28;20053;-85
2023/12/25 09:28:29;;;;;;;3.78;3.33;;;9.90;99.90;;;;;;5034270;28;20052;-87
2023/12/25 09:30:56;;;;;;;4.68;3.20;;;9.90;99.90;;;;;;5017706;28;20080;-86
2023/12/25 09:33:24;;;;;;;6.22;3.45;;;9.90;99.90;;;;;;5018794;28;20053;-86
2023/12/25 09:35:51;;;;;;;5.40;3.05;;;9.90;99.90;;;;;;5018002;28;20050;-87
2023/12/25 09:38:17;;;;;;;5.57;3.50;;;9.90;99.90;;;;;;5001419;28;20477;-83
2023/12/25 09:40:42;;;;;;;4.97;3.20;;;9.90;99.90;;;;;;5034932;28;20088;-83
2023/12/25 09:43:09;;;;;;;3.95;3.42;;;9.90;99.90;;;;;;5033686;28;20064;-85
2023/12/25 09:45:37;;;;;;;6.07;3.67;;;10.00;99.90;;;;;;5017754;28;20539;-83
2023/12/25 09:48:05;;;;;;;5.30;3.63;;;10.00;99.90;;;;;;5033921;28;20092;-83
2023/12/25 09:50:31;;;;;;;4.47;3.45;;;10.00;99.90;;;;;;5033784;28;20103;-84
2023/12/25 09:52:57;;;;;;;5.38;3.45;;;10.00;99.90;;;;;;5033559;28;20142;-82
2023/12/25 09:55:22;;;;;;;8.10;4.50;;;10.00;99.90;;;;;;5033582;28;20125;-82
2023/12/25 09:57:50;;;;;;;6.13;3.88;;;10.00;99.90;;;;;;5017171;28;20046;-87
2023/12/25 10:00:17;;;;;;;4.80;3.65;;;10.00;99.90;;;;;;5016963;28;20045;-87
2023/12/25 10:02:45;;;;;;;5.65;3.90;;;10.00;99.90;;;;;;5033921;28;20049;-86
2023/12/25 10:05:12;;;;;;;8.95;3.33;;;10.00;99.90;;;;;;5017098;28;20120;-85
2023/12/25 10:07:38;;;;;;;7.13;3.58;;;10.00;99.90;;;;;;5017104;28;20089;-87
2023/12/25 10:10:05;;;;;;;7.68;3.72;;;10.00;99.90;;;;;;5017134;28;20104;-88
2023/12/25 10:12:31;;;;;;;6.03;3.75;;;10.10;99.90;;;;;;5016717;28;20111;-86
2023/12/25 10:14:56;;;;;;;5.88;3.53;;;10.10;99.90;;;;;;5033377;28;20084;-86
2023/12/25 10:17:22;;;;;;;9.68;3.50;;;10.10;99.90;;;;;;5016899;28;20375;-83
2023/12/25 10:19:55;;;;;;;5.40;3.38;;;10.10;99.90;;;;;;5016867;28;20049;-83
2023/12/25 10:22:33;;;;;;;4.47;3.55;;;10.10;99.90;;;;;;5033216;28;20497;-82
2023/12/25 10:25:09;;;;;;;8.05;3.25;;;10.10;99.90;;;;;;5017152;28;20103;-83
2023/12/25 10:27:37;;;;;;;6.35;3.92;;;10.10;99.90;;;;;;5017331;28;20046;-83
2023/12/25 10:30:03;;;;;;;5.80;4.05;;;10.20;99.90;;;;;;5033694;28;20467;-88
2023/12/25 10:32:31;;;;;;;6.75;3.70;;;10.20;99.90;;;;;;5000239;28;20103;-89
2023/12/25 10:35:31;;;;;;;5.78;3.58;;;10.20;99.90;;;;;;5032543;28;20063;-87
2023/12/25 10:37:57;;;;;;;7.05;3.92;;;10.40;99.90;;;;;;4984978;28;20120;-86
2023/12/25 10:40:25;;;;;;;5.43;3.30;;;10.50;99.90;;;;;;5016049;28;20100;-85
2023/12/25 10:42:53;;;;;;;3.83;3.38;;;10.50;99.90;;;;;;5032353;28;20049;-85
2023/12/25 10:45:26;;;;;;;7.72;3.47;;;10.40;99.90;;;;;;5033155;28;20470;-86
2023/12/25 10:47:54;;;;;;;7.03;4.00;;;10.40;99.90;;;;;;5016152;28;20121;-85
2023/12/25 10:50:27;;;;;;;6.65;3.55;;;10.30;99.90;;;;;;5032743;28;20085;-86
2023/12/25 10:52:57;;;;;;;5.90;3.83;;;10.30;99.90;;;;;;5016260;28;20059;-85
2023/12/25 10:55:24;;;;;;;5.10;3.90;;;10.20;99.90;;;;;;5017516;28;20126;-86
2023/12/25 10:57:52;;;;;;;8.07;3.72;;;10.20;99.90;;;;;;5033471;28;20041;-87
2023/12/25 11:00:20;;;;;;;5.30;3.90;;;10.20;99.90;;;;;;5032723;28;20045;-85
2023/12/25 11:02:48;;;;;;;8.43;3.85;;;10.20;99.90;;;;;;5016234;28;20060;-84
2023/12/25 11:05:14;;;;;;;4.60;3.78;;;10.20;99.90;;;;;;5032727;28;20049;-85
2023/12/25 11:07:39;;;;;;;5.35;3.42;;;10.20;99.90;;;;;;5016100;28;20554;-85
2023/12/25 11:10:07;;;;;;;4.45;3.92;;;10.20;99.90;;;;;;5032648;28;20132;-82
2023/12/25 11:12:35;;;;;;;7.53;4.00;;;10.10;99.90;;;;;;5031984;28;20056;-82
2023/12/25 11:15:01;;;;;;;5.72;3.50;;;10.10;99.90;;;;;;5032489;28;20378;-82
2023/12/25 11:17:27;;;;;;;6.57;3.63;;;10.10;99.90;;;;;;5016151;28;20053;-83
2023/12/25 11:19:52;;;;;;;10.43;4.25;;;10.10;99.90;;;;;;5016101;28;20099;-83
2023/12/25 11:22:29;;;;;;;6.32;3.65;;;10.10;99.90;;;;;;4999772;28;20053;-82
2023/12/25 11:24:59;;;;;;;7.88;3.83;;;10.10;99.90;;;;;;5032856;28;20053;-82
2023/12/25 11:27:29;;;;;;;7.70;4.22;;;10.10;99.90;;;;;;5016296;28;20059;-84
2023/12/25 11:30:09;;;;;;;4.28;3.67;;;10.10;99.90;;;;;;5016982;28;20084;-85
2023/12/25 11:32:36;;;;;;;6.30;4.32;;;10.10;99.90;;;;;;5033329;28;20041;-86
2023/12/25 11:35:02;;;;;;;8.13;4.30;;;10.10;99.90;;;;;;5015884;28;20111;-85
2023/12/25 11:37:30;;;;;;;4.70;3.60;;;10.20;99.90;;;;;;5033163;28;20418;-86
2023/12/25 11:40:08;;;;;;;8.27;3.50;;;10.20;99.90;;;;;;5032221;28;20057;-87
2023/12/25 11:42:35;;;;;;;6.97;4.15;;;10.30;99.90;;;;;;5032291;28;20049;-88
2023/12/25 11:45:06;;;;;;;5.25;4.10;;;10.30;99.90;;;;;;5016165;28;20555;-88
2023/12/25 11:47:58;;;;;;;7.05;3.75;;;10.30;99.90;;;;;;5000988;28;20377;-87
2023/12/25 11:50:24;;;;;;;7.85;4.00;;;10.30;99.90;;;;;;5013870;28;20060;-85
2023/12/25 11:52:56;;;;;;;7.10;4.15;;;10.30;99.90;;;;;;4999576;28;20135;-85
2023/12/25 11:55:24;;;;;;;6.75;3.95;;;10.30;99.90;;;;;;5032837;28;20095;-86
2023/12/25 11:57:50;;;;;;;6.35;3.90;;;10.30;99.90;;;;;;5015478;28;20049;-83
2023/12/25 12:00:26;;;;;;;4.53;3.45;;;10.40;99.90;;;;;;5015516;28;20060;-82
2023/12/25 12:02:52;;;;;;;5.95;3.80;;;10.50;99.90;;;;;;5000995;28;20053;-83
2023/12/25 12:05:18;;;;;;;6.15;4.00;;;10.50;99.90;;;;;;5015575;28;20096;-85
2023/12/25 12:07:45;;;;;;;4.90;3.35;;;10.50;99.90;;;;;;5016291;28;20445;-83
2023/12/25 12:10:12;;;;;;;5.30;3.10;;;10.60;99.90;;;;;;5020097;28;20103;-83
2023/12/25 12:12:39;;;;;;;5.68;3.60;;;10.60;99.90;;;;;;5019178;28;20042;-84
2023/12/25 12:15:06;;;;;;;6.90;3.75;;;10.50;99.90;;;;;;5035977;28;20049;-83
2023/12/25 12:17:32;;;;;;;6.22;3.63;;;10.50;99.90;;;;;;5035824;28;20106;-82
2023/12/25 12:19:59;;;;;;;5.60;3.92;;;10.50;99.90;;;;;;5035628;28;20478;-83
2023/12/25 12:22:26;;;;;;;6.88;4.07;;;10.50;99.90;;;;;;5035612;28;20378;-83
2023/12/25 12:24:52;;;;;;;5.68;3.88;;;10.50;99.90;;;;;;5035446;28;20487;-85
2023/12/25 12:27:21;;;;;;;7.22;4.35;;;10.50;99.90;;;;;;5019242;28;20052;-86
2023/12/25 12:29:50;;;;;;;8.25;4.25;;;10.60;99.90;;;;;;5002602;28;20111;-86
2023/12/25 12:32:17;;;;;;;8.05;3.97;;;10.60;99.90;;;;;;5018576;28;20175;-86
2023/12/25 12:34:43;;;;;;;8.60;4.15;;;10.60;99.90;;;;;;5018790;28;20041;-83
2023/12/25 12:37:09;;;;;;;5.32;3.72;;;10.70;99.90;;;;;;5035268;28;20057;-83
2023/12/25 12:39:36;;;;;;;5.28;3.53;;;10.60;99.90;;;;;;5002078;28;20478;-83
2023/12/25 12:42:09;;;;;;;5.78;3.45;;;10.70;99.90;;;;;;5019093;28;20041;-82
2023/12/25 12:44:34;;;;;;;6.53;3.80;;;10.70;99.90;;;;;;5035760;28;20378;-84